Time;durP1;ratioP1;P1;durP2;ratioP2;P2;SDS_P1;SDS_P2;PMS_P1;PMS_P2;Temp;Humidity;BMP_temperature;BMP_pressure;BME280_temperature;BME280_humidity;BME280_pressure;Samples;Min_cycle;Max_cycle;Signal;HPM_P1;HPM_P2
2023/03/05 00:00:55;;;;;;;18.48;9.80;;;;;;;3.17;100.00;98288.28;2552227;29;20081;-83
2023/03/05 00:02:15;;;;;;;18.63;8.18;;;;;;;3.06;100.00;98283.13;2551351;29;20142;-85
2023/03/05 00:03:31;;;;;;;23.73;10.02;;;;;;;3.07;100.00;98276.22;2550747;29;20079;-82
2023/03/05 00:04:46;;;;;;;22.23;8.82;;;;;;;3.31;100.00;98272.78;2551050;29;20058;-82
2023/03/05 00:06:02;;;;;;;21.33;9.82;;;;;;;3.22;100.00;98273.66;2551119;29;20063;-83
2023/03/05 00:07:18;;;;;;;20.70;10.07;;;;;;;3.08;100.00;98283.16;2552257;28;20051;-82
2023/03/05 00:08:33;;;;;;;29.00;10.25;;;;;;;3.11;100.00;98280.53;2551136;29;20055;-83
2023/03/05 00:09:49;;;;;;;23.20;9.68;;;;;;;3.11;100.00;98272.78;2550745;29;20047;-83
2023/03/05 00:11:08;;;;;;;22.83;10.18;;;;;;;3.01;100.00;98271.06;2553049;29;20087;-82
2023/03/05 00:12:23;;;;;;;20.60;10.02;;;;;;;2.81;100.00;98266.75;2550707;29;20156;-82
2023/03/05 00:13:39;;;;;;;21.10;9.68;;;;;;;2.96;100.00;98274.53;2550883;29;20582;-82
2023/03/05 00:14:55;;;;;;;21.50;9.40;;;;;;;2.96;100.00;98274.53;2552444;29;20142;-83
2023/03/05 00:16:13;;;;;;;22.88;10.10;;;;;;;3.11;100.00;98272.78;2541371;29;20091;-82
2023/03/05 00:17:29;;;;;;;20.95;8.63;;;;;;;3.09;100.00;98262.44;2544568;29;20433;-81
2023/03/05 00:18:45;;;;;;;19.95;9.02;;;;;;;3.05;100.00;98265.88;2550330;29;20047;-82
2023/03/05 00:20:01;;;;;;;14.82;7.63;;;;;;;2.97;100.00;98268.47;2552446;29;20051;-82
2023/03/05 00:21:21;;;;;;;13.48;6.35;;;;;;;2.85;100.00;98267.59;2551310;29;20089;-85
2023/03/05 00:22:36;;;;;;;23.60;9.50;;;;;;;2.87;100.00;98265.91;2551803;29;20458;-81
2023/03/05 00:23:54;;;;;;;21.45;9.15;;;;;;;2.96;100.00;98271.94;2551658;29;20055;-82
2023/03/05 00:25:09;;;;;;;19.42;9.27;;;;;;;2.91;100.00;98263.28;2551290;29;20098;-81
2023/03/05 00:26:26;;;;;;;21.17;9.07;;;;;;;3.03;100.00;98265.03;2551898;29;20549;-83
2023/03/05 00:27:42;;;;;;;22.80;10.80;;;;;;;3.11;100.00;98265.03;2539603;29;20146;-83
2023/03/05 00:28:59;;;;;;;21.52;9.40;;;;;;;3.07;100.00;98268.47;2545838;29;20047;-82
2023/03/05 00:30:14;;;;;;;21.85;9.80;;;;;;;3.03;100.00;98265.03;2550692;29;20131;-85
2023/03/05 00:31:32;;;;;;;23.27;9.98;;;;;;;3.29;100.00;98260.69;2550158;29;20052;-84
2023/03/05 00:32:48;;;;;;;20.70;9.27;;;;;;;3.21;100.00;98255.53;2551614;29;20550;-84
2023/03/05 00:34:10;;;;;;;24.58;10.02;;;;;;;3.41;100.00;98252.03;2551249;29;20059;-84
2023/03/05 00:35:25;;;;;;;19.75;9.70;;;;;;;3.45;100.00;98248.59;2550383;29;20061;-83
2023/03/05 00:36:43;;;;;;;18.90;9.15;;;;;;;3.30;100.00;98245.16;2550960;29;20587;-83
2023/03/05 00:37:59;;;;;;;24.35;10.45;;;;;;;3.26;100.00;98243.44;2550393;29;20503;-83
2023/03/05 00:39:16;;;;;;;22.83;10.07;;;;;;;3.29;100.00;98242.56;2549726;29;20090;-83
2023/03/05 00:40:35;;;;;;;22.77;9.45;;;;;;;3.33;100.00;98239.09;2552240;29;20510;-83
2023/03/05 00:41:51;;;;;;;22.38;9.82;;;;;;;3.39;100.00;98242.53;2549908;29;20051;-82
2023/03/05 00:43:08;;;;;;;24.00;10.32;;;;;;;3.06;100.00;98236.56;2552091;29;20055;-82
2023/03/05 00:44:24;;;;;;;24.17;10.10;;;;;;;3.14;100.00;98239.16;2552241;29;20660;-81
2023/03/05 00:45:39;;;;;;;24.30;10.20;;;;;;;3.22;100.00;98242.59;2550490;29;20609;-87
2023/03/05 00:46:55;;;;;;;23.60;10.02;;;;;;;3.08;100.00;98234.00;2550189;29;20634;-84
2023/03/05 00:48:11;;;;;;;23.88;9.57;;;;;;;2.97;100.00;98244.31;2551940;29;20149;-85
2023/03/05 00:49:26;;;;;;;21.85;10.35;;;;;;;3.00;100.00;98235.72;2551902;29;20063;-85
2023/03/05 00:50:42;;;;;;;26.42;10.23;;;;;;;3.23;100.00;98238.25;2551191;29;20151;-81
2023/03/05 00:51:58;;;;;;;22.98;10.07;;;;;;;3.07;100.00;98232.25;2550716;29;20055;-81
2023/03/05 00:53:13;;;;;;;20.02;9.25;;;;;;;3.16;100.00;98237.41;2549731;29;20043;-81
2023/03/05 00:54:28;;;;;;;22.63;9.57;;;;;;;2.94;100.00;98228.81;2552035;29;20103;-81
2023/03/05 00:55:44;;;;;;;21.95;10.20;;;;;;;3.05;100.00;98229.69;2551723;29;20134;-81
2023/03/05 00:57:00;;;;;;;20.25;9.43;;;;;;;3.22;100.00;98227.06;2551338;29;20074;-85
2023/03/05 00:58:15;;;;;;;24.50;10.13;;;;;;;3.27;100.00;98223.59;2550582;29;20059;-83
2023/03/05 00:59:31;;;;;;;21.92;10.10;;;;;;;3.40;100.00;98220.13;2551579;28;20050;-82
2023/03/05 01:00:49;;;;;;;23.90;9.25;;;;;;;3.37;100.00;98223.56;2551939;29;20101;-83
2023/03/05 01:02:05;;;;;;;19.35;8.82;;;;;;;3.27;100.00;98223.59;2552715;29;20052;-81
2023/03/05 01:03:20;;;;;;;21.63;9.57;;;;;;;3.24;100.00;98224.47;2549703;29;20059;-80
2023/03/05 01:04:37;;;;;;;21.17;8.88;;;;;;;3.38;100.00;98222.72;2549939;29;20103;-81
2023/03/05 01:05:52;;;;;;;24.63;10.73;;;;;;;3.22;100.00;98229.66;2549711;28;20150;-81
2023/03/05 01:07:08;;;;;;;22.25;9.95;;;;;;;3.35;100.00;98220.13;2551081;29;20055;-81
2023/03/05 01:08:24;;;;;;;24.88;9.13;;;;;;;3.30;100.00;98218.41;2542028;29;20181;-81
2023/03/05 01:09:39;;;;;;;21.95;10.43;;;;;;;3.18;100.00;98220.16;2545952;29;20113;-81
2023/03/05 01:10:55;;;;;;;27.10;9.50;;;;;;;3.45;100.00;98218.38;2552544;29;20055;-82
2023/03/05 01:12:11;;;;;;;26.67;9.90;;;;;;;3.45;100.00;98214.94;2550534;29;20487;-82
2023/03/05 01:13:27;;;;;;;23.10;9.52;;;;;;;3.47;100.00;98211.47;2549965;29;20083;-81
2023/03/05 01:14:42;;;;;;;20.80;9.68;;;;;;;3.43;100.00;98214.94;2551273;29;20052;-82
2023/03/05 01:15:59;;;;;;;23.02;9.82;;;;;;;3.42;100.00;98213.22;2550880;29;20044;-83
2023/03/05 01:17:15;;;;;;;20.17;8.88;;;;;;;3.10;100.00;98214.16;2550379;29;20511;-81
2023/03/05 01:18:31;;;;;;;22.23;10.10;;;;;;;3.00;100.00;98217.63;2538928;29;20657;-82
2023/03/05 01:19:46;;;;;;;19.90;9.00;;;;;;;3.07;100.00;98211.56;2542803;29;20058;-82
2023/03/05 01:21:03;;;;;;;20.75;9.10;;;;;;;3.12;100.00;98204.66;2551699;29;20059;-81
2023/03/05 01:22:19;;;;;;;21.90;10.25;;;;;;;3.26;100.00;98202.03;2551224;29;20082;-81
2023/03/05 01:23:36;;;;;;;23.65;10.18;;;;;;;3.13;100.00;98205.50;2550124;29;20490;-82
2023/03/05 01:24:51;;;;;;;21.73;9.57;;;;;;;3.11;100.00;98208.13;2549699;29;20073;-81
2023/03/05 01:26:08;;;;;;;20.90;10.07;;;;;;;2.99;100.00;98208.13;2540898;29;20064;-81
2023/03/05 01:27:23;;;;;;;18.02;9.05;;;;;;;3.07;100.00;98199.50;2545909;29;20056;-82
2023/03/05 01:28:39;;;;;;;21.67;9.85;;;;;;;2.97;100.00;98200.38;2550020;29;20557;-80
2023/03/05 01:29:55;;;;;;;18.58;9.18;;;;;;;3.04;100.00;98208.97;2550529;29;20052;-82
2023/03/05 01:31:11;;;;;;;19.10;8.98;;;;;;;3.17;100.00;98186.56;2539367;29;20047;-81
2023/03/05 01:32:27;;;;;;;22.48;10.45;;;;;;;3.24;100.00;98194.28;2544007;29;20098;-81
2023/03/05 01:33:43;;;;;;;19.23;9.05;;;;;;;3.41;100.00;98195.97;2550175;29;20134;-81
2023/03/05 01:35:00;;;;;;;18.95;9.13;;;;;;;3.36;100.00;98197.72;2550544;29;20055;-81
2023/03/05 01:36:15;;;;;;;22.45;9.63;;;;;;;3.26;100.00;98194.28;2549914;29;20538;-81
2023/03/05 01:37:31;;;;;;;25.55;10.02;;;;;;;3.08;100.00;98195.19;2551561;29;20134;-81
2023/03/05 01:38:47;;;;;;;26.02;10.43;;;;;;;2.87;100.00;98189.19;2551007;29;20051;-83
2023/03/05 01:40:04;;;;;;;20.58;9.05;;;;;;;2.72;100.00;98191.78;2550952;29;20078;-83
2023/03/05 01:41:20;;;;;;;20.95;10.15;;;;;;;2.56;100.00;98193.50;2551640;29;20093;-82
2023/03/05 01:42:35;;;;;;;26.63;10.20;;;;;;;2.60;100.00;98200.41;2549705;29;20055;-82
2023/03/05 01:43:54;;;;;;;23.20;10.10;;;;;;;2.70;100.00;98185.75;2549922;29;20526;-82
2023/03/05 01:45:13;;;;;;;26.45;10.88;;;;;;;2.83;100.00;98193.47;2551279;29;20082;-83
2023/03/05 01:46:33;;;;;;;30.55;11.63;;;;;;;2.69;100.00;98184.88;2551415;29;20051;-84
2023/03/05 01:47:49;;;;;;;26.10;10.07;;;;;;;2.47;100.00;98184.00;2550459;29;20052;-82
2023/03/05 01:49:25;;;;;;;26.83;10.43;;;;;;;2.70;100.00;98178.00;2551663;29;20070;-82
2023/03/05 01:50:41;;;;;;;27.35;9.90;;;;;;;2.82;100.00;98181.41;2551058;29;20383;-84
2023/03/05 01:52:00;;;;;;;23.67;10.25;;;;;;;3.02;100.00;98177.09;2550898;29;20058;-83
2023/03/05 01:53:16;;;;;;;29.35;11.32;;;;;;;3.10;100.00;98176.19;2549386;29;20130;-82
2023/03/05 01:54:37;;;;;;;23.95;10.55;;;;;;;3.06;100.00;98179.66;2549955;29;20053;-82
2023/03/05 01:55:53;;;;;;;22.77;10.13;;;;;;;3.10;100.00;98176.19;2550897;29;20138;-85
2023/03/05 01:57:21;;;;;;;25.05;9.85;;;;;;;3.14;100.00;98177.06;2550223;29;20696;-81
2023/03/05 01:58:38;;;;;;;21.70;9.90;;;;;;;2.77;100.00;98177.13;2550011;29;20060;-84
2023/03/05 01:59:59;;;;;;;23.98;10.13;;;;;;;2.91;100.00;98172.78;2552167;29;20281;-81
2023/03/05 02:01:15;;;;;;;22.63;10.57;;;;;;;3.18;100.00;98168.41;2551575;29;20055;-83
2023/03/05 02:02:31;;;;;;;22.73;9.57;;;;;;;2.90;100.00;98167.63;2552285;29;20505;-83
2023/03/05 02:03:47;;;;;;;22.35;9.23;;;;;;;2.82;100.00;98171.06;2550810;29;20628;-81
2023/03/05 02:05:07;;;;;;;20.35;9.27;;;;;;;2.75;100.00;98171.97;2551743;29;20059;-81
2023/03/05 02:06:22;;;;;;;18.77;9.40;;;;;;;2.87;100.00;98170.22;2550839;29;20516;-83
2023/03/05 02:07:41;;;;;;;18.90;9.00;;;;;;;2.89;100.00;98171.94;2551036;28;20074;-82
2023/03/05 02:08:58;;;;;;;26.33;11.20;;;;;;;2.87;100.00;98167.66;2550245;29;20083;-82
2023/03/05 02:10:19;;;;;;;25.52;9.80;;;;;;;3.08;100.00;98156.41;2551595;29;20510;-81
2023/03/05 02:11:35;;;;;;;23.08;10.63;;;;;;;3.16;100.00;98164.97;2550165;29;20047;-83
2023/03/05 02:12:53;;;;;;;21.60;10.27;;;;;;;3.09;100.00;98165.88;2551445;29;20048;-82
2023/03/05 02:14:09;;;;;;;21.90;10.68;;;;;;;2.97;100.00;98165.03;2552270;29;20158;-82
2023/03/05 02:15:24;;;;;;;23.65;11.15;;;;;;;2.59;100.00;98167.66;2550066;29;20363;-82
2023/03/05 02:16:41;;;;;;;24.15;11.05;;;;;;;2.75;100.00;98163.34;2549295;29;20162;-81
2023/03/05 02:17:57;;;;;;;25.10;10.77;;;;;;;2.97;100.00;98159.84;2551770;29;20061;-81
2023/03/05 02:19:12;;;;;;;23.83;10.88;;;;;;;3.08;100.00;98153.81;2552265;29;20159;-84
2023/03/05 02:20:41;;;;;;;27.45;10.02;;;;;;;3.03;100.00;98158.13;2551143;28;20056;-82
2023/03/05 02:21:56;;;;;;;21.30;9.98;;;;;;;2.62;100.00;98162.50;2550469;29;20047;-82
2023/03/05 02:23:13;;;;;;;25.45;11.27;;;;;;;2.53;100.00;98150.44;2549139;29;20530;-84
2023/03/05 02:24:36;;;;;;;27.83;12.15;;;;;;;2.80;100.00;98157.28;2550435;29;20083;-82
2023/03/05 02:25:52;;;;;;;28.98;11.52;;;;;;;2.68;100.00;98155.59;2549621;29;20043;-81
2023/03/05 02:27:08;;;;;;;28.70;10.50;;;;;;;2.49;100.00;98151.28;2550132;29;20619;-81
2023/03/05 02:28:37;;;;;;;27.83;10.70;;;;;;;2.78;100.00;98160.72;2549571;29;20550;-86
2023/03/05 02:29:52;;;;;;;24.88;10.43;;;;;;;2.79;100.00;98152.13;2551252;28;20056;-82
2023/03/05 02:31:21;;;;;;;20.05;9.95;;;;;;;2.97;100.00;98152.09;2552768;29;20414;-81
2023/03/05 02:32:37;;;;;;;24.95;10.48;;;;;;;2.99;100.00;98148.66;2553048;29;20078;-81
2023/03/05 02:33:54;;;;;;;25.23;10.55;;;;;;;2.81;100.00;98143.50;2553221;29;20051;-81
2023/03/05 02:35:10;;;;;;;24.50;10.85;;;;;;;2.81;100.00;98138.34;2552894;29;20047;-81
2023/03/05 02:36:26;;;;;;;25.95;10.38;;;;;;;2.95;100.00;98134.84;2553265;29;20492;-81
2023/03/05 02:37:42;;;;;;;20.30;10.10;;;;;;;3.08;100.00;98143.47;2551910;29;20048;-81
2023/03/05 02:38:58;;;;;;;24.98;10.43;;;;;;;3.05;100.00;98139.16;2551980;29;20056;-81
2023/03/05 02:40:14;;;;;;;23.80;9.85;;;;;;;2.92;100.00;98146.06;2551168;29;20578;-82
2023/03/05 02:41:30;;;;;;;23.80;9.98;;;;;;;3.07;100.00;98142.59;2553110;29;20459;-81
2023/03/05 02:42:45;;;;;;;22.48;9.60;;;;;;;3.00;100.00;98135.69;2551310;29;20194;-81
2023/03/05 02:44:01;;;;;;;24.05;10.55;;;;;;;3.18;100.00;98139.97;2551347;29;20067;-80
2023/03/05 02:45:17;;;;;;;20.70;9.68;;;;;;;3.19;100.00;98131.34;2552828;29;20055;-81
2023/03/05 02:46:32;;;;;;;19.95;9.35;;;;;;;3.24;100.00;98137.38;2553027;29;20454;-81
2023/03/05 02:47:48;;;;;;;19.98;9.10;;;;;;;3.21;100.00;98134.81;2553005;29;20100;-80
2023/03/05 02:49:04;;;;;;;22.00;9.30;;;;;;;3.24;100.00;98129.59;2550685;29;20104;-85
2023/03/05 02:50:20;;;;;;;22.65;9.68;;;;;;;3.18;100.00;98131.34;2553203;29;20098;-83
2023/03/05 02:51:36;;;;;;;22.50;9.65;;;;;;;3.10;100.00;98128.78;2551194;29;20047;-81
2023/03/05 02:52:52;;;;;;;24.48;10.02;;;;;;;3.09;100.00;98122.75;2552178;29;20454;-82
2023/03/05 02:54:07;;;;;;;23.63;9.07;;;;;;;3.06;100.00;98127.06;2553755;29;20062;-83
2023/03/05 02:55:23;;;;;;;20.55;9.75;;;;;;;3.02;100.00;98121.06;2553169;29;20054;-80
2023/03/05 02:56:38;;;;;;;20.73;10.05;;;;;;;3.01;100.00;98126.22;2551639;29;20058;-81
2023/03/05 02:57:54;;;;;;;20.95;9.90;;;;;;;2.91;100.00;98122.81;2553937;29;20514;-87
2023/03/05 02:59:10;;;;;;;20.95;10.13;;;;;;;2.83;100.00;98125.41;2553301;29;20101;-82
2023/03/05 03:00:26;;;;;;;23.40;9.75;;;;;;;2.75;100.00;98127.13;2551959;29;20074;-82
2023/03/05 03:01:41;;;;;;;20.27;9.65;;;;;;;2.72;100.00;98124.56;2551494;29;20052;-82
2023/03/05 03:02:57;;;;;;;21.20;9.98;;;;;;;2.85;100.00;98118.50;2552980;29;20059;-83
2023/03/05 03:04:12;;;;;;;19.35;9.02;;;;;;;2.79;100.00;98121.09;2553280;28;20358;-81
2023/03/05 03:05:28;;;;;;;23.33;9.48;;;;;;;2.63;100.00;98115.94;2552051;29;20058;-81
2023/03/05 03:06:44;;;;;;;23.58;9.65;;;;;;;2.78;100.00;98122.81;2551156;29;20062;-81
2023/03/05 03:07:59;;;;;;;24.05;10.25;;;;;;;2.82;100.00;98121.94;2552999;29;20110;-83
2023/03/05 03:09:15;;;;;;;22.38;9.98;;;;;;;2.87;100.00;98119.38;2550771;29;20067;-84
2023/03/05 03:10:32;;;;;;;23.05;9.82;;;;;;;2.74;100.00;98120.25;2552368;29;20462;-83
2023/03/05 03:11:48;;;;;;;23.60;10.18;;;;;;;2.65;100.00;98122.00;2552443;29;20632;-82
2023/03/05 03:13:04;;;;;;;20.80;9.65;;;;;;;2.66;100.00;98126.31;2551928;29;20085;-81
2023/03/05 03:14:19;;;;;;;19.17;9.32;;;;;;;2.79;100.00;98129.72;2551680;29;20056;-81
2023/03/05 03:15:36;;;;;;;21.38;9.45;;;;;;;2.80;100.00;98118.50;2550970;29;20062;-84
2023/03/05 03:16:52;;;;;;;17.30;9.23;;;;;;;2.72;100.00;98117.66;2552577;29;20076;-82
2023/03/05 03:18:08;;;;;;;19.05;8.70;;;;;;;2.87;100.00;98111.59;2551856;29;20051;-83
2023/03/05 03:19:23;;;;;;;22.23;8.30;;;;;;;2.99;100.00;98115.03;2552100;29;20117;-83
2023/03/05 03:20:39;;;;;;;17.98;7.88;;;;;;;3.03;100.00;98109.84;2550557;29;20921;-85
2023/03/05 03:21:55;;;;;;;17.13;8.57;;;;;;;3.04;100.00;98108.09;2552764;29;20047;-84
2023/03/05 03:23:10;;;;;;;19.13;8.05;;;;;;;2.85;100.00;98113.34;2550712;29;20055;-83
2023/03/05 03:24:26;;;;;;;15.55;8.07;;;;;;;2.97;100.00;98112.44;2551256;29;20123;-83
2023/03/05 03:25:42;;;;;;;15.52;7.55;;;;;;;2.90;100.00;98105.56;2553035;29;20630;-83
2023/03/05 03:26:57;;;;;;;16.80;7.57;;;;;;;2.77;100.00;98102.13;2551828;28;20051;-83
2023/03/05 03:28:12;;;;;;;14.23;7.03;;;;;;;2.73;100.00;98105.59;2553774;29;20047;-83
2023/03/05 03:29:29;;;;;;;20.20;8.23;;;;;;;2.63;100.00;98113.38;2551640;28;20083;-85
2023/03/05 03:30:45;;;;;;;17.13;7.15;;;;;;;2.87;100.00;98103.00;2550675;29;20396;-83
2023/03/05 03:32:01;;;;;;;17.40;7.70;;;;;;;2.82;100.00;98103.00;2552375;29;20059;-82
2023/03/05 03:33:17;;;;;;;20.00;8.27;;;;;;;2.84;100.00;98101.28;2551761;29;20154;-83
2023/03/05 03:34:33;;;;;;;20.85;8.95;;;;;;;2.82;100.00;98101.28;2552200;29;20696;-82
2023/03/05 03:35:49;;;;;;;19.08;8.45;;;;;;;3.04;100.00;98108.09;2551554;29;20066;-84
2023/03/05 03:37:05;;;;;;;24.48;10.23;;;;;;;3.16;100.00;98115.84;2551576;29;20051;-88
2023/03/05 03:38:20;;;;;;;18.33;9.48;;;;;;;2.81;100.00;98107.31;2551540;29;20056;-82
2023/03/05 03:39:36;;;;;;;25.77;10.93;;;;;;;3.00;100.00;98111.56;2551534;29;20054;-81
2023/03/05 03:40:52;;;;;;;23.75;10.20;;;;;;;3.13;100.00;98109.81;2551868;29;20059;-81
2023/03/05 03:42:07;;;;;;;22.08;10.25;;;;;;;3.08;100.00;98109.84;2551786;28;20386;-86
2023/03/05 03:43:23;;;;;;;21.15;10.15;;;;;;;3.05;100.00;98115.00;2540686;29;20056;-84
2023/03/05 03:44:39;;;;;;;18.13;9.48;;;;;;;2.93;100.00;98111.59;2546557;29;20055;-81
2023/03/05 03:45:54;;;;;;;20.95;9.90;;;;;;;2.94;100.00;98100.41;2550806;29;20056;-83
2023/03/05 03:47:10;;;;;;;20.05;10.30;;;;;;;3.02;100.00;98104.66;2551482;29;20048;-83
2023/03/05 03:48:26;;;;;;;24.38;11.57;;;;;;;2.92;100.00;98107.28;2552263;29;20055;-82
2023/03/05 03:49:41;;;;;;;20.95;9.57;;;;;;;2.88;100.00;98105.56;2551724;29;20051;-81
2023/03/05 03:50:57;;;;;;;21.08;10.00;;;;;;;2.76;100.00;98108.19;2551648;29;20052;-82
2023/03/05 03:52:13;;;;;;;20.48;9.30;;;;;;;2.74;100.00;98099.56;2550474;29;20075;-81
2023/03/05 03:53:28;;;;;;;24.73;9.77;;;;;;;2.58;100.00;98109.94;2551647;29;20636;-83
2023/03/05 03:54:44;;;;;;;24.48;10.55;;;;;;;2.67;100.00;98102.19;2552093;28;20051;-82
2023/03/05 03:56:00;;;;;;;21.80;9.90;;;;;;;2.77;100.00;98099.56;2552319;29;20058;-82
2023/03/05 03:57:15;;;;;;;21.08;9.73;;;;;;;2.78;100.00;98101.28;2551382;29;20072;-85
2023/03/05 03:58:31;;;;;;;16.08;7.85;;;;;;;2.83;100.00;98104.72;2550891;29;20051;-86
2023/03/05 03:59:49;;;;;;;19.60;8.35;;;;;;;2.83;100.00;98097.81;2549962;29;20177;-82
2023/03/05 04:01:04;;;;;;;16.63;8.57;;;;;;;2.61;100.00;98106.50;2552040;29;20047;-81
2023/03/05 04:02:20;;;;;;;16.83;7.07;;;;;;;2.57;100.00;98097.88;2552092;29;20051;-86
2023/03/05 04:03:35;;;;;;;14.85;6.90;;;;;;;2.62;100.00;98101.31;2552274;29;20062;-81
2023/03/05 04:04:51;;;;;;;15.35;6.88;;;;;;;2.83;100.00;98103.00;2542108;29;20040;-82
2023/03/05 04:06:08;;;;;;;17.80;6.78;;;;;;;2.53;100.00;98099.59;2544278;29;20420;-81
2023/03/05 04:07:24;;;;;;;12.35;5.82;;;;;;;2.67;100.00;98099.59;2552514;29;20090;-82
2023/03/05 04:08:39;;;;;;;13.55;6.07;;;;;;;2.92;100.00;98098.66;2551220;29;20612;-82
2023/03/05 04:09:55;;;;;;;11.95;6.57;;;;;;;2.90;100.00;98092.66;2551986;29;20058;-85
2023/03/05 04:11:11;;;;;;;9.55;4.57;;;;;;;2.94;100.00;98096.94;2551530;29;20154;-81
2023/03/05 04:12:26;;;;;;;11.48;5.10;;;;;;;2.72;100.00;98096.13;2552229;29;20047;-81
2023/03/05 04:13:42;;;;;;;15.25;5.18;;;;;;;2.95;100.00;98096.94;2552068;29;20047;-81
2023/03/05 04:14:58;;;;;;;8.07;4.45;;;;;;;3.16;100.00;98096.88;2550116;29;20058;-81
2023/03/05 04:16:14;;;;;;;12.48;5.32;;;;;;;2.79;100.00;98096.13;2553151;29;20055;-83
2023/03/05 04:17:31;;;;;;;11.38;4.95;;;;;;;2.88;100.00;98097.81;2551335;29;20114;-82
2023/03/05 04:18:47;;;;;;;9.30;4.47;;;;;;;2.77;100.00;98097.84;2552277;29;20249;-84
2023/03/05 04:20:05;;;;;;;9.93;4.93;;;;;;;2.86;100.00;98096.97;2551922;29;20051;-82
2023/03/05 04:21:21;;;;;;;7.45;4.18;;;;;;;2.75;100.00;98096.13;2550950;29;21007;-83
2023/03/05 04:22:37;;;;;;;13.57;5.10;;;;;;;2.99;100.00;98099.50;2550012;29;20051;-82
2023/03/05 04:23:52;;;;;;;8.88;4.57;;;;;;;2.86;100.00;98094.38;2551170;29;20221;-81
2023/03/05 04:25:08;;;;;;;8.57;3.78;;;;;;;2.97;100.00;98097.78;2550564;29;20494;-88
2023/03/05 04:26:24;;;;;;;8.00;3.90;;;;;;;2.99;100.00;98095.19;2551041;29;20130;-82
2023/03/05 04:27:40;;;;;;;5.97;3.38;;;;;;;2.74;100.00;98096.97;2552905;29;20056;-81
2023/03/05 04:28:55;;;;;;;6.65;2.83;;;;;;;2.95;100.00;98096.94;2551009;29;20571;-81
2023/03/05 04:30:15;;;;;;;5.40;2.80;;;;;;;3.01;100.00;98100.38;2551354;29;20483;-81
2023/03/05 04:31:31;;;;;;;4.75;2.40;;;;;;;3.11;100.00;98097.72;2551050;29;20044;-84
2023/03/05 04:32:46;;;;;;;6.60;2.50;;;;;;;3.09;100.00;98096.03;2551967;29;20055;-83
2023/03/05 04:34:02;;;;;;;4.38;1.92;;;;;;;3.03;100.00;98098.63;2550855;29;20059;-82
2023/03/05 04:35:18;;;;;;;1.92;1.30;;;;;;;2.89;100.00;98096.94;2540768;29;20063;-82
2023/03/05 04:36:33;;;;;;;4.10;1.83;;;;;;;2.96;100.00;98098.66;2545457;29;20079;-81
2023/03/05 04:37:49;;;;;;;3.53;1.65;;;;;;;2.93;100.00;98095.22;2552641;29;20137;-81
2023/03/05 04:39:05;;;;;;;5.47;1.95;;;;;;;2.97;100.00;98099.50;2550597;29;20237;-83
2023/03/05 04:40:21;;;;;;;3.10;1.60;;;;;;;2.82;100.00;98097.84;2549895;29;20093;-82
2023/03/05 04:41:37;;;;;;;2.63;1.60;;;;;;;3.03;100.00;98093.47;2550558;29;20483;-81
2023/03/05 04:42:52;;;;;;;5.20;1.50;;;;;;;3.05;100.00;98099.47;2551248;28;20594;-81
2023/03/05 04:44:08;;;;;;;2.80;0.93;;;;;;;2.66;100.00;98099.59;2550660;29;20052;-81
2023/03/05 04:45:24;;;;;;;2.75;0.90;;;;;;;2.38;100.00;98091.88;2552837;29;20058;-81
2023/03/05 04:46:39;;;;;;;2.55;1.40;;;;;;;2.51;100.00;98091.00;2550450;29;20422;-81
2023/03/05 04:47:55;;;;;;;2.97;1.30;;;;;;;2.65;100.00;98092.69;2551268;28;20055;-81
2023/03/05 04:49:11;;;;;;;1.45;0.95;;;;;;;2.43;100.00;98094.44;2552168;29;20047;-82
2023/03/05 04:50:26;;;;;;;4.65;1.80;;;;;;;2.72;100.00;98090.97;2551214;29;20149;-81
2023/03/05 04:51:44;;;;;;;3.25;1.40;;;;;;;2.61;100.00;98089.25;2549870;29;20087;-83
2023/03/05 04:53:00;;;;;;;2.47;1.40;;;;;;;2.47;100.00;98091.00;2551268;28;20388;-82
2023/03/05 04:54:15;;;;;;;4.75;1.50;;;;;;;2.75;100.00;98085.78;2549166;29;20059;-81
2023/03/05 04:55:31;;;;;;;2.15;1.40;;;;;;;2.66;100.00;98078.91;2549831;29;20055;-81
2023/03/05 04:56:47;;;;;;;2.72;1.50;;;;;;;2.79;100.00;98074.56;2550895;29;20055;-81
2023/03/05 04:58:03;;;;;;;4.10;1.70;;;;;;;2.70;100.00;98079.75;2551096;29;20051;-81
2023/03/05 04:59:18;;;;;;;4.85;1.38;;;;;;;2.53;100.00;98085.84;2550828;29;20051;-82
2023/03/05 05:00:34;;;;;;;3.00;1.30;;;;;;;2.83;100.00;98087.47;2550026;28;20058;-81
2023/03/05 05:01:49;;;;;;;3.22;1.52;;;;;;;2.88;100.00;98086.63;2551896;29;20070;-83
2023/03/05 05:03:05;;;;;;;2.80;1.42;;;;;;;3.01;100.00;98082.25;2550288;29;20069;-81
2023/03/05 05:04:21;;;;;;;4.00;1.58;;;;;;;2.99;100.00;98086.59;2552420;29;20060;-82
2023/03/05 05:05:37;;;;;;;4.72;2.03;;;;;;;2.97;100.00;98082.28;2549589;29;20051;-82
2023/03/05 05:06:57;;;;;;;3.22;1.33;;;;;;;2.85;100.00;98084.03;2551277;29;20838;-82
2023/03/05 05:08:12;;;;;;;3.33;1.70;;;;;;;2.87;100.00;98084.91;2552448;29;20044;-83
2023/03/05 05:09:28;;;;;;;3.20;1.48;;;;;;;2.98;100.00;98085.72;2552808;29;20051;-82
2023/03/05 05:10:44;;;;;;;2.28;1.38;;;;;;;2.71;100.00;98089.25;2550894;29;20063;-81
2023/03/05 05:11:59;;;;;;;2.40;1.40;;;;;;;2.84;100.00;98085.75;2549840;29;20474;-81
2023/03/05 05:13:15;;;;;;;3.97;1.50;;;;;;;2.63;100.00;98082.34;2550548;29;20114;-82
2023/03/05 05:14:33;;;;;;;4.57;1.60;;;;;;;2.83;100.00;98084.03;2551373;29;20059;-81
2023/03/05 05:15:48;;;;;;;4.25;1.20;;;;;;;2.43;100.00;98084.13;2550570;29;20056;-82
2023/03/05 05:17:04;;;;;;;3.28;1.42;;;;;;;2.39;100.00;98091.00;2551273;29;20059;-81
2023/03/05 05:18:20;;;;;;;4.90;1.73;;;;;;;2.66;100.00;98091.81;2550827;29;20075;-82
2023/03/05 05:19:35;;;;;;;3.50;1.50;;;;;;;2.67;100.00;98089.25;2551367;29;20082;-81
2023/03/05 05:20:51;;;;;;;3.30;1.40;;;;;;;2.60;100.00;98095.28;2550096;29;20495;-80
2023/03/05 05:22:07;;;;;;;1.20;0.70;;;;;;;2.44;100.00;98096.16;2551660;29;20676;-81
2023/03/05 05:23:22;;;;;;;2.33;1.40;;;;;;;2.16;100.00;98091.00;2550230;29;20062;-81
2023/03/05 05:24:38;;;;;;;4.10;1.17;;;;;;;2.30;100.00;98089.28;2552630;29;20055;-81
2023/03/05 05:25:58;;;;;;;2.38;0.93;;;;;;;2.19;100.00;98091.00;2551016;29;20095;-85
2023/03/05 05:27:14;;;;;;;2.38;1.00;;;;;;;2.14;100.00;98092.75;2550439;29;20050;-81
2023/03/05 05:28:30;;;;;;;2.63;1.20;;;;;;;2.44;100.00;98096.16;2550713;29;20557;-81
2023/03/05 05:29:49;;;;;;;1.30;0.88;;;;;;;2.23;100.00;98097.88;2541229;29;20135;-84
2023/03/05 05:31:09;;;;;;;6.75;2.10;;;;;;;1.85;100.00;98101.31;2544908;29;20082;-81
2023/03/05 05:32:25;;;;;;;5.47;1.30;;;;;;;2.15;100.00;98109.94;2551957;29;20043;-81
2023/03/05 05:33:41;;;;;;;4.50;1.73;;;;;;;2.43;100.00;98097.88;2551574;29;20055;-83
2023/03/05 05:34:57;;;;;;;6.13;1.55;;;;;;;2.25;100.00;98104.78;2540111;29;20048;-82
2023/03/05 05:36:15;;;;;;;2.60;1.40;;;;;;;2.30;100.00;98102.19;2543062;29;20052;-82
2023/03/05 05:37:31;;;;;;;5.70;1.48;;;;;;;2.50;100.00;98096.16;2550424;29;20142;-84
2023/03/05 05:38:47;;;;;;;6.97;2.38;;;;;;;2.49;100.00;98104.75;2550952;29;20051;-82
2023/03/05 05:40:04;;;;;;;3.40;1.35;;;;;;;2.36;100.00;98107.34;2549714;29;20052;-81
2023/03/05 05:41:20;;;;;;;2.83;1.75;;;;;;;2.37;100.00;98106.50;2549850;29;20083;-81
2023/03/05 05:42:36;;;;;;;1.63;1.20;;;;;;;2.53;100.00;98103.91;2550371;29;20051;-82
2023/03/05 05:43:51;;;;;;;4.57;1.60;;;;;;;2.09;100.00;98109.06;2552520;28;20077;-82
2023/03/05 05:45:08;;;;;;;2.60;1.35;;;;;;;2.04;100.00;98110.78;2539921;29;20110;-81
2023/03/05 05:46:23;;;;;;;4.03;1.70;;;;;;;2.36;100.00;98112.53;2544704;29;20593;-82
2023/03/05 05:47:39;;;;;;;4.95;1.50;;;;;;;2.27;100.00;98109.97;2540474;29;20058;-82
2023/03/05 05:48:55;;;;;;;2.65;1.30;;;;;;;2.21;100.00;98115.09;2543753;29;20057;-82
2023/03/05 05:50:11;;;;;;;3.70;1.67;;;;;;;2.14;100.00;98109.06;2550988;29;20403;-81
2023/03/05 05:51:26;;;;;;;3.05;1.20;;;;;;;2.33;100.00;98115.09;2551587;28;20489;-82
2023/03/05 05:52:42;;;;;;;3.95;1.23;;;;;;;1.69;100.00;98107.31;2552430;29;20047;-82
2023/03/05 05:53:58;;;;;;;4.10;1.65;;;;;;;2.04;100.00;98109.94;2551466;29;20070;-82
2023/03/05 05:55:13;;;;;;;3.72;1.35;;;;;;;2.07;100.00;98113.38;2550952;29;20043;-82